createdAt,value
2022-11-05T00:03:13.799Z,100375.13
2022-11-05T00:10:42.689Z,100388.06
2022-11-05T00:18:19.755Z,100399.69
2022-11-05T00:20:54.223Z,100395.50
2022-11-05T00:26:52.072Z,100406.41
2022-11-05T00:29:19.383Z,100403.31
2022-11-05T00:31:52.115Z,100400.31
2022-11-05T00:34:47.472Z,100401.56
2022-11-05T00:40:32.325Z,100410.22
2022-11-05T00:43:21.202Z,100419.19
2022-11-05T00:45:50.818Z,100411.03
2022-11-05T00:49:18.912Z,100417.66
2022-11-05T00:52:38.002Z,100417.31
2022-11-05T00:55:05.561Z,100419.19
2022-11-05T01:01:26.462Z,100424.63
2022-11-05T01:04:28.764Z,100429.16
2022-11-05T01:12:03.933Z,100434.84
2022-11-05T01:14:31.379Z,100438.41
2022-11-05T01:17:47.579Z,100441.63
2022-11-05T01:21:58.001Z,100447.94
2022-11-05T01:24:30.882Z,100447.00
2022-11-05T01:26:58.521Z,100444.59
2022-11-05T01:30:08.098Z,100447.00
2022-11-05T01:32:52.554Z,100450.56
2022-11-05T01:35:25.591Z,100447.94
2022-11-05T01:54:27.045Z,100465.69
2022-11-05T01:57:35.603Z,100463.78
2022-11-05T02:00:07.636Z,100466.97
2022-11-05T02:02:55.053Z,100463.75
2022-11-05T02:12:48.191Z,100475.00
2022-11-05T02:13:05.395Z,100479.41
2022-11-05T02:16:51.244Z,100493.38
2022-11-05T02:20:20.227Z,100488.88
2022-11-05T02:28:31.543Z,100502.00
2022-11-05T02:32:06.341Z,100500.25
2022-11-05T02:35:50.929Z,100510.44
2022-11-05T02:39:36.383Z,100511.38
2022-11-05T02:43:23.034Z,100521.50
2022-11-05T02:50:31.164Z,100525.03
2022-11-05T02:53:00.925Z,100535.78
2022-11-05T02:55:38.830Z,100528.94
2022-11-05T02:58:12.542Z,100532.56
2022-11-05T03:08:39.546Z,100536.81
2022-11-05T03:11:57.843Z,100546.97
2022-11-05T03:15:32.258Z,100548.56
2022-11-05T03:18:39.196Z,100558.25
2022-11-05T03:22:20.205Z,100560.53
2022-11-05T03:25:15.973Z,100573.91
2022-11-05T03:28:23.880Z,100573.56
2022-11-05T03:31:01.845Z,100580.97
2022-11-05T03:37:08.783Z,100576.91
2022-11-05T03:42:52.454Z,100579.72
2022-11-05T03:46:02.905Z,100583.28
2022-11-05T03:48:43.163Z,100588.50
2022-11-05T03:52:41.658Z,100589.44
2022-11-05T03:55:18.111Z,100596.19
2022-11-05T04:01:43.057Z,100609.75
2022-11-05T04:05:04.979Z,100606.31
2022-11-05T04:11:36.880Z,100611.66
2022-11-05T04:14:09.940Z,100620.97
2022-11-05T04:24:31.112Z,100630.06
2022-11-05T04:27:05.522Z,100628.63
2022-11-05T04:30:00.417Z,100633.88
2022-11-05T04:32:30.285Z,100633.19
2022-11-05T04:34:57.629Z,100639.19
2022-11-05T04:37:28.014Z,100642.38
2022-11-05T04:40:03.651Z,100642.38
2022-11-05T04:42:30.995Z,100637.41
2022-11-05T04:45:01.150Z,100646.94
2022-11-05T04:47:28.510Z,100644.72
2022-11-05T04:52:48.158Z,100644.81
2022-11-05T04:55:15.933Z,100647.56
2022-11-05T04:57:43.512Z,100653.94
2022-11-05T05:00:11.712Z,100659.38
2022-11-05T05:02:39.251Z,100655.19
2022-11-05T05:05:09.728Z,100654.59
2022-11-05T05:07:37.259Z,100664.81
2022-11-05T05:10:13.477Z,100655.88
2022-11-05T05:12:51.152Z,100661.78
2022-11-05T05:15:20.830Z,100660.31
2022-11-05T05:17:52.828Z,100656.22
2022-11-05T05:20:41.930Z,100655.59
2022-11-05T05:23:13.547Z,100661.16
2022-11-05T05:25:40.630Z,100662.72
2022-11-05T05:28:16.244Z,100670.25
2022-11-05T05:31:03.602Z,100670.38
2022-11-05T05:33:30.706Z,100674.56
2022-11-05T05:36:09.972Z,100672.34
2022-11-05T05:38:40.811Z,100679.53
2022-11-05T05:41:07.992Z,100683.38
2022-11-05T05:47:16.041Z,100695.91
2022-11-05T05:50:03.542Z,100689.19
2022-11-05T05:52:30.687Z,100702.59
2022-11-05T05:55:35.825Z,100706.88
2022-11-05T05:59:28.116Z,100712.81
2022-11-05T06:02:58.257Z,100718.69
2022-11-05T06:08:34.353Z,100731.50
2022-11-05T06:14:43.556Z,100734.56
2022-11-05T06:17:16.577Z,100738.31
2022-11-05T06:20:12.139Z,100746.47
2022-11-05T06:22:43.791Z,100756.88
2022-11-05T06:25:11.296Z,100759.28
2022-11-05T06:28:20.486Z,100759.00
2022-11-05T06:30:53.453Z,100764.94
2022-11-05T06:33:42.792Z,100777.88
2022-11-05T06:36:16.866Z,100778.53
2022-11-05T06:38:50.842Z,100786.41
2022-11-05T06:41:18.299Z,100790.69
2022-11-05T06:44:10.428Z,100790.88
2022-11-05T06:46:43.312Z,100795.88
2022-11-05T06:49:14.505Z,100803.84
2022-11-05T06:51:47.301Z,100804.63
2022-11-05T06:54:23.607Z,100811.50
2022-11-05T06:56:54.611Z,100812.97
2022-11-05T06:59:34.442Z,100817.28
2022-11-05T07:02:36.821Z,100807.66
2022-11-05T07:05:17.164Z,100813.44
2022-11-05T07:07:45.774Z,100812.78
2022-11-05T07:10:24.430Z,100823.19
2022-11-05T07:12:56.865Z,100826.25
2022-11-05T07:15:23.851Z,100831.00
2022-11-05T07:17:51.025Z,100827.81
2022-11-05T07:20:18.095Z,100829.03
2022-11-05T07:22:45.366Z,100831.13
2022-11-05T07:25:12.302Z,100843.22
2022-11-05T07:27:40.192Z,100848.34
2022-11-05T07:30:12.448Z,100848.53
2022-11-05T07:32:40.846Z,100856.25
2022-11-05T07:35:09.956Z,100856.16
2022-11-05T07:37:51.908Z,100860.78
2022-11-05T07:40:19.763Z,100860.97
2022-11-05T07:42:50.915Z,100862.03
2022-11-05T07:45:19.530Z,100849.09
2022-11-05T07:47:57.257Z,100843.72
2022-11-05T07:50:34.958Z,100849.97
2022-11-05T07:53:11.104Z,100850.78
2022-11-05T07:55:40.213Z,100859.13
2022-11-05T07:58:07.538Z,100860.06
2022-11-05T08:00:34.625Z,100865.09
2022-11-05T08:03:17.503Z,100869.78
2022-11-05T08:05:47.777Z,100865.75
2022-11-05T08:08:18.773Z,100870.59
2022-11-05T08:10:46.790Z,100876.19
2022-11-05T08:13:15.391Z,100875.59
2022-11-05T08:15:43.228Z,100886.81
2022-11-05T08:18:17.932Z,100888.63
2022-11-05T08:20:46.842Z,100892.53
2022-11-05T08:23:14.409Z,100889.09
2022-11-05T08:25:42.183Z,100897.75
2022-11-05T08:28:13.126Z,100903.97
2022-11-05T08:30:40.669Z,100909.09
2022-11-05T08:33:19.349Z,100907.91
2022-11-05T08:35:46.560Z,100915.97
2022-11-05T08:38:17.093Z,100924.78
2022-11-05T08:40:58.117Z,100925.81
2022-11-05T08:43:25.708Z,100928.44
2022-11-05T08:45:52.813Z,100928.69
2022-11-05T08:48:19.900Z,100929.50
2022-11-05T08:50:49.023Z,100927.06
2022-11-05T08:53:17.286Z,100925.41
2022-11-05T08:55:46.321Z,100930.19
2022-11-05T08:58:17.369Z,100935.34
2022-11-05T09:00:48.592Z,100931.03
2022-11-05T09:03:16.618Z,100928.50
2022-11-05T09:05:43.904Z,100936.16
2022-11-05T09:08:15.847Z,100937.81
2022-11-05T09:10:44.203Z,100941.94
2022-11-05T09:13:18.325Z,100944.63
2022-11-05T09:15:50.408Z,100949.69
2022-11-05T09:18:19.598Z,100952.50
2022-11-05T09:20:47.246Z,100953.31
2022-11-05T09:23:15.592Z,100956.13
2022-11-05T09:25:43.518Z,100958.66
2022-11-05T09:28:22.673Z,100961.78
2022-11-05T09:30:52.511Z,100962.47
2022-11-05T09:33:24.945Z,100963.50
2022-11-05T09:35:53.693Z,100970.16
2022-11-05T09:38:47.317Z,100974.78
2022-11-05T09:41:38.851Z,100980.72
2022-11-05T09:44:35.911Z,100983.34
2022-11-05T09:47:24.736Z,100985.22
2022-11-05T09:49:57.128Z,100982.69
2022-11-05T09:52:29.992Z,100981.22
2022-11-05T09:55:31.847Z,100983.94
2022-11-05T09:58:46.202Z,100981.44
2022-11-05T10:01:37.495Z,100992.06
2022-11-05T10:07:26.250Z,100979.06
2022-11-05T10:11:14.653Z,100982.91
2022-11-05T10:18:35.002Z,100993.50
2022-11-05T10:21:10.113Z,100988.19
2022-11-05T10:23:40.353Z,100995.22
2022-11-05T10:26:47.960Z,100999.41
2022-11-05T10:29:32.247Z,100994.34
2022-11-05T10:32:10.574Z,100993.53
2022-11-05T10:41:53.350Z,101006.16
2022-11-05T10:48:45.963Z,101013.50
2022-11-05T10:51:22.507Z,101016.31
2022-11-05T10:54:12.161Z,101021.44
2022-11-05T10:56:42.527Z,101020.41
2022-11-05T10:59:32.139Z,101025.47
2022-11-05T11:02:26.431Z,101027.19
2022-11-05T11:05:36.071Z,101025.66
2022-11-05T11:08:35.511Z,101027.28
2022-11-05T11:11:51.117Z,101019.41
2022-11-05T11:14:22.163Z,101019.91
2022-11-05T11:20:44.075Z,101020.97
2022-11-05T11:29:29.233Z,101024.75
2022-11-05T11:32:01.086Z,101023.38
2022-11-05T11:34:39.429Z,101022.41
2022-11-05T11:37:35.672Z,101016.22
2022-11-05T11:40:40.692Z,101022.03
2022-11-05T11:43:28.660Z,101024.38
2022-11-05T11:46:03.720Z,101027.41
2022-11-05T11:48:43.875Z,101030.34
2022-11-05T11:51:37.683Z,101028.22
2022-11-05T11:54:28.543Z,101025.13
2022-11-05T11:57:58.108Z,101027.34
2022-11-05T12:01:47.911Z,101027.47
2022-11-05T12:05:08.971Z,101032.50
2022-11-05T12:08:21.668Z,101028.69
2022-11-05T12:11:44.059Z,101029.69
2022-11-05T12:15:18.804Z,101028.13
2022-11-05T12:19:10.578Z,101030.09
2022-11-05T12:22:27.165Z,101028.34
2022-11-05T12:25:10.409Z,101021.19
2022-11-05T12:28:06.389Z,101031.09
2022-11-05T12:31:32.958Z,101033.47
2022-11-05T12:34:30.594Z,101040.63
2022-11-05T12:37:21.687Z,101032.63
2022-11-05T12:40:29.751Z,101030.81
2022-11-05T12:43:44.348Z,101031.78
2022-11-05T12:47:01.580Z,101030.28
2022-11-05T12:50:15.304Z,101018.94
2022-11-05T12:53:17.441Z,101024.53
2022-11-05T12:55:49.409Z,101028.56
2022-11-05T12:58:41.115Z,101028.28
2022-11-05T13:01:24.163Z,101024.50
2022-11-05T13:04:27.159Z,101032.97
2022-11-05T13:06:56.396Z,101029.03
2022-11-05T13:09:30.995Z,101028.38
2022-11-05T13:12:10.207Z,101030.28
2022-11-05T13:14:49.482Z,101028.38
2022-11-05T13:17:28.275Z,101038.44
2022-11-05T13:20:25.255Z,101035.66
2022-11-05T13:23:14.029Z,101039.56
2022-11-05T13:25:53.481Z,101047.91
2022-11-05T13:28:39.545Z,101049.53
2022-11-05T13:31:15.809Z,101045.59
2022-11-05T13:33:51.257Z,101046.38
2022-11-05T13:36:46.953Z,101053.50
2022-11-05T13:39:50.886Z,101058.75
2022-11-05T13:43:39.414Z,101063.78
2022-11-05T13:47:04.814Z,101067.22
2022-11-05T13:50:15.106Z,101068.75
2022-11-05T13:53:17.386Z,101069.03
2022-11-05T13:56:39.073Z,101072.13
2022-11-05T14:00:20.574Z,101076.53
2022-11-05T14:03:24.987Z,101079.50
2022-11-05T14:06:12.612Z,101078.28
2022-11-05T14:08:45.169Z,101070.69
2022-11-05T14:11:34.996Z,101077.25
2022-11-05T14:14:15.905Z,101081.69
2022-11-05T14:17:07.639Z,101083.66
2022-11-05T14:20:07.013Z,101082.13
2022-11-05T14:22:33.819Z,101084.91
2022-11-05T14:25:24.214Z,101091.59
2022-11-05T14:27:57.869Z,101091.19
2022-11-05T14:30:47.909Z,101090.28
2022-11-05T14:33:25.846Z,101083.91
2022-11-05T14:36:45.838Z,101085.06
2022-11-05T14:39:20.942Z,101086.06
2022-11-05T14:42:30.933Z,101087.63
2022-11-05T14:49:12.956Z,101098.63
2022-11-05T14:51:48.096Z,101098.09
2022-11-05T14:55:34.300Z,101109.13
2022-11-05T15:02:15.315Z,101110.88
2022-11-05T15:05:18.264Z,101113.91
2022-11-05T15:08:15.752Z,101113.81
2022-11-05T15:10:43.983Z,101113.91
2022-11-05T15:13:40.608Z,101115.94
2022-11-05T15:16:45.112Z,101118.84
2022-11-05T15:19:37.365Z,101118.63
2022-11-05T15:22:39.996Z,101116.28
2022-11-05T15:29:28.612Z,101124.16
2022-11-05T15:33:20.047Z,101122.16
2022-11-05T15:36:26.714Z,101126.03
2022-11-05T15:39:29.338Z,101123.47
2022-11-05T15:42:04.946Z,101129.06
2022-11-05T15:44:43.111Z,101129.00
2022-11-05T15:47:36.468Z,101130.53
2022-11-05T15:54:01.813Z,101133.31
2022-11-05T15:56:48.012Z,101139.13
2022-11-05T15:59:22.681Z,101148.22
2022-11-05T16:02:33.944Z,101141.72
2022-11-05T16:05:13.501Z,101137.72
2022-11-05T16:07:46.138Z,101136.34
2022-11-05T16:10:39.556Z,101141.19
2022-11-05T16:13:38.501Z,101138.88
2022-11-05T16:16:36.729Z,101132.97
2022-11-05T16:19:42.370Z,101137.00
2022-11-05T16:22:17.833Z,101134.94
2022-11-05T16:24:46.593Z,101149.09
2022-11-05T16:27:25.058Z,101146.47
2022-11-05T16:29:57.280Z,101148.97
2022-11-05T16:32:38.688Z,101149.31
2022-11-05T16:35:18.387Z,101147.00
2022-11-05T16:37:54.046Z,101141.88
2022-11-05T16:40:25.987Z,101149.03
2022-11-05T16:43:21.495Z,101142.16
2022-11-05T16:45:59.652Z,101154.09
2022-11-05T16:48:45.366Z,101146.91
2022-11-05T16:51:23.343Z,101155.19
2022-11-05T16:53:53.373Z,101160.72
2022-11-05T16:56:28.062Z,101171.25
2022-11-05T16:59:04.513Z,101170.63
2022-11-05T17:01:32.500Z,101168.22
2022-11-05T17:03:59.606Z,101167.56
2022-11-05T17:06:26.729Z,101178.00
2022-11-05T17:09:19.883Z,101174.75
2022-11-05T17:11:46.915Z,101183.53
2022-11-05T17:14:41.518Z,101200.50
2022-11-05T17:17:15.490Z,101193.94
2022-11-05T17:20:39.897Z,101200.06
2022-11-05T17:23:15.662Z,101205.25
2022-11-05T17:26:26.805Z,101209.72
2022-11-05T17:29:02.437Z,101213.38
2022-11-05T17:31:36.216Z,101219.78
2022-11-05T17:34:09.721Z,101211.41
2022-11-05T17:36:37.138Z,101193.00
2022-11-05T17:39:10.036Z,101207.38
2022-11-05T17:41:37.247Z,101213.91
2022-11-05T17:44:04.246Z,101214.91
2022-11-05T17:46:31.421Z,101212.78
2022-11-05T17:49:02.869Z,101222.69
2022-11-05T17:51:35.831Z,101227.78
2022-11-05T17:54:11.806Z,101232.72
2022-11-05T17:56:50.372Z,101233.00
2022-11-05T17:59:20.717Z,101228.56
2022-11-05T18:02:17.352Z,101228.88
2022-11-05T18:04:50.644Z,101237.06
2022-11-05T18:07:26.803Z,101243.72
2022-11-05T18:09:59.165Z,101242.97
2022-11-05T18:12:35.710Z,101239.28
2022-11-05T18:16:01.708Z,101233.72
2022-11-05T18:18:31.822Z,101234.19
2022-11-05T18:21:00.300Z,101232.56
2022-11-05T18:23:54.905Z,101238.47
2022-11-05T18:26:21.849Z,101235.53
2022-11-05T18:29:10.285Z,101231.19
2022-11-05T18:31:40.338Z,101229.13
2022-11-05T18:36:56.871Z,101226.50
2022-11-05T18:39:25.697Z,101224.38
2022-11-05T18:41:52.817Z,101222.50
2022-11-05T18:44:27.801Z,101221.72
2022-11-05T18:50:30.474Z,101230.13
2022-11-05T18:54:25.244Z,101223.53
2022-11-05T18:57:17.339Z,101222.03
2022-11-05T19:00:40.868Z,101223.63
2022-11-05T19:03:25.820Z,101226.47
2022-11-05T19:06:22.441Z,101230.25
2022-11-05T19:08:51.853Z,101234.91
2022-11-05T19:11:27.748Z,101234.91
2022-11-05T19:14:03.180Z,101235.69
2022-11-05T19:16:35.119Z,101234.22
2022-11-05T19:22:29.230Z,101243.03
2022-11-05T19:28:39.398Z,101249.94
2022-11-05T19:31:19.723Z,101244.72
2022-11-05T19:33:49.337Z,101245.19
2022-11-05T19:36:20.521Z,101246.34
2022-11-05T19:38:53.243Z,101239.84
2022-11-05T19:41:25.902Z,101238.31
2022-11-05T19:43:57.014Z,101243.94
2022-11-05T19:46:39.462Z,101246.03
2022-11-05T19:49:07.123Z,101240.09
2022-11-05T19:51:34.797Z,101235.88
2022-11-05T19:54:11.634Z,101246.00
2022-11-05T19:57:12.519Z,101250.22
2022-11-05T19:59:45.574Z,101254.00
2022-11-05T20:02:16.186Z,101255.59
2022-11-05T20:04:49.548Z,101255.09
2022-11-05T20:07:51.321Z,101245.19
2022-11-05T20:10:45.771Z,101247.34
2022-11-05T20:13:18.577Z,101245.38
2022-11-05T20:15:50.064Z,101251.34
2022-11-05T20:18:28.121Z,101259.13
2022-11-05T20:21:09.151Z,101256.72
2022-11-05T20:23:36.585Z,101253.38
2022-11-05T20:26:11.954Z,101267.47
2022-11-05T20:28:41.042Z,101261.63
2022-11-05T20:31:17.641Z,101262.09
2022-11-05T20:33:46.424Z,101261.06
2022-11-05T20:36:19.164Z,101259.56
2022-11-05T20:38:58.243Z,101273.66
2022-11-05T20:41:26.453Z,101272.88
2022-11-05T20:43:54.300Z,101277.84
2022-11-05T20:46:23.413Z,101274.19
2022-11-05T20:48:51.516Z,101271.50
2022-11-05T20:51:22.933Z,101283.28
2022-11-05T20:53:55.297Z,101280.69
2022-11-05T20:56:27.110Z,101279.16
2022-11-05T20:58:59.101Z,101283.13
2022-11-05T21:01:30.400Z,101276.69
2022-11-05T21:03:57.925Z,101279.13
2022-11-05T21:06:25.018Z,101270.84
2022-11-05T21:08:52.802Z,101273.69
2022-11-05T21:11:20.739Z,101274.59
2022-11-05T21:13:48.327Z,101279.25
2022-11-05T21:16:18.967Z,101278.13
2022-11-05T21:18:47.612Z,101276.09
2022-11-05T21:21:20.168Z,101277.53
2022-11-05T21:23:47.709Z,101279.16
2022-11-05T21:26:16.902Z,101282.59
2022-11-05T21:28:43.990Z,101298.38
2022-11-05T21:31:13.939Z,101296.00
2022-11-05T21:33:41.197Z,101289.06
2022-11-05T21:36:12.943Z,101296.88
2022-11-05T21:38:42.980Z,101296.13
2022-11-05T21:41:11.693Z,101287.72
2022-11-05T21:43:43.519Z,101277.56
2022-11-05T21:46:13.338Z,101278.28
2022-11-05T21:48:40.343Z,101276.63
2022-11-05T21:51:31.328Z,101279.75
2022-11-05T21:54:25.271Z,101275.66
2022-11-05T21:57:11.204Z,101281.09
2022-11-05T21:59:55.435Z,101284.19
2022-11-05T22:02:28.542Z,101285.47
2022-11-05T22:04:59.736Z,101277.59
2022-11-05T22:07:41.313Z,101280.81
2022-11-05T22:10:16.127Z,101288.13
2022-11-05T22:12:44.893Z,101288.34
2022-11-05T22:15:17.904Z,101285.16
2022-11-05T22:17:47.130Z,101287.22
2022-11-05T22:20:16.633Z,101277.09
2022-11-05T22:22:43.951Z,101277.44
2022-11-05T22:25:12.807Z,101282.75
2022-11-05T22:27:39.867Z,101275.38
2022-11-05T22:30:07.732Z,101279.94
2022-11-05T22:32:34.968Z,101279.00
2022-11-05T22:35:02.456Z,101278.19
2022-11-05T22:37:29.995Z,101279.09
2022-11-05T22:39:56.963Z,101276.81
2022-11-05T22:42:23.962Z,101280.09
2022-11-05T22:44:51.011Z,101274.09
2022-11-05T22:47:18.270Z,101273.34
2022-11-05T22:49:45.904Z,101268.47
2022-11-05T22:52:12.853Z,101272.75
2022-11-05T22:54:39.915Z,101274.44
2022-11-05T22:57:06.892Z,101269.97
2022-11-05T22:59:34.036Z,101275.63
2022-11-05T23:02:06.549Z,101276.59
2022-11-05T23:04:36.301Z,101280.81
2022-11-05T23:07:27.313Z,101282.88
2022-11-05T23:10:13.467Z,101281.25
2022-11-05T23:12:44.277Z,101281.69
2022-11-05T23:15:31.720Z,101278.91
2022-11-05T23:18:17.242Z,101274.69
2022-11-05T23:21:02.770Z,101272.75
2022-11-05T23:23:48.109Z,101270.56
2022-11-05T23:26:36.426Z,101281.69
2022-11-05T23:29:06.592Z,101278.75
2022-11-05T23:31:55.336Z,101272.00
2022-11-05T23:34:22.260Z,101280.69
2022-11-05T23:37:08.191Z,101272.81
2022-11-05T23:39:41.276Z,101280.56
2022-11-05T23:42:28.983Z,101275.91
2022-11-05T23:45:15.067Z,101266.72
2022-11-05T23:48:03.288Z,101264.75
2022-11-05T23:50:35.562Z,101255.09
2022-11-05T23:53:04.132Z,101251.03
2022-11-05T23:55:31.466Z,101254.06
2022-11-05T23:58:01.282Z,101266.13
